Accueil
METAR-TAF:

METAR-TAF

Aéroports :

Aéroport Santander Seve Ballesteros

Santander, Espagne

latitude: 43-26N, longitude: 003-49W, altitude: 6 m

Observation

Le bulletin a été fait il y a 36 minutes, à 20:00 UTC
Vent 3 kt de ouest/nord-ouest
Température 20°C
Humidité 78%
Pression 1019 hPa
Visibilité 10 km ou plus
Nuages fragmentés à une hauteur de 2800 ft

METAR: LEXJ 132000Z 30003KT 9999 BKN028 20/16 Q1019

Heure: 22:36 (20:36 UTC)

Prévision

Le bulletin a été fait il y a 6 heures et 36 minutes, à 14:00 UTC
Prévision valable du 13 à 15 UTC au 14 à 15 UTC
Vent 9 kt de ouest/nord-ouest
Visibilité 10 km ou plus
Nuages épars à une hauteur de 2500 ft
Nuages épars à une hauteur de 4000 ft
Temporairement
du 14 à 10 UTC au 14 à 15 UTC
Vent 10 kt de nord-est

TAF: LEXJ 131400Z 1315/1415 29009KT 9999 SCT025 SCT040 TX24/1413Z TN15/1403Z TEMPO 1410/1415 04010KT

Observations et prévisions météorologiques de plus de 4000 aéroports (messages METAR et TAF).

Les stations disponibles sont représentées par des disques jaunes et rouges sur la carte.

Passer la souris dessus pour voir le nom de la station.

Cliquer dessus pour voir les observations et prévisions météorologiques.

Pour changer de carte: cliquez sur les boutons verts avec une croix noire pour zoomer, sur le bouton vert avec un tiret pour effectuer un zoom arrière, ou sur les flèches vertes pour les cartes adjacentes.


METAR-TAF: